createdAt,value
2018-05-23T00:00:12.177Z,4.40
2018-05-23T00:01:12.234Z,4.40
2018-05-23T00:02:12.246Z,4.40
2018-05-23T00:03:12.257Z,4.40
2018-05-23T00:04:12.305Z,4.40
2018-05-23T00:05:12.280Z,4.40
2018-05-23T00:06:12.207Z,4.40
2018-05-23T00:07:12.218Z,4.40
2018-05-23T00:08:12.307Z,4.40
2018-05-23T00:09:12.256Z,4.90
2018-05-23T00:10:12.287Z,4.90
2018-05-23T00:11:12.200Z,4.90
2018-05-23T00:12:12.190Z,4.90
2018-05-23T00:13:12.310Z,4.90
2018-05-23T00:14:12.190Z,4.90
2018-05-23T00:15:12.322Z,4.90
2018-05-23T00:16:12.362Z,4.90
2018-05-23T00:17:12.288Z,4.90
2018-05-23T00:18:12.286Z,4.90
2018-05-23T00:19:12.362Z,5.20
2018-05-23T00:20:12.313Z,5.20
2018-05-23T00:21:12.213Z,5.20
2018-05-23T00:22:12.294Z,5.20
2018-05-23T00:23:12.294Z,5.20
2018-05-23T00:24:12.290Z,5.20
2018-05-23T00:25:12.259Z,5.20
2018-05-23T00:26:12.260Z,5.20
2018-05-23T00:27:12.236Z,5.20
2018-05-23T00:28:12.335Z,5.20
2018-05-23T00:29:12.283Z,5.10
2018-05-23T00:30:12.288Z,5.10
2018-05-23T00:31:12.285Z,5.10
2018-05-23T00:32:12.286Z,5.10
2018-05-23T00:33:12.293Z,5.10
2018-05-23T00:34:12.291Z,5.10
2018-05-23T00:35:12.202Z,5.10
2018-05-23T00:36:12.206Z,5.10
2018-05-23T00:37:12.294Z,5.10
2018-05-23T00:38:12.223Z,5.10
2018-05-23T00:39:12.339Z,5.90
2018-05-23T00:40:12.339Z,5.90
2018-05-23T00:41:12.301Z,5.90
2018-05-23T00:42:12.320Z,5.90
2018-05-23T00:43:12.325Z,5.90
2018-05-23T00:44:12.271Z,5.90
2018-05-23T00:45:12.229Z,5.90
2018-05-23T00:46:12.205Z,5.90
2018-05-23T00:47:12.263Z,5.90
2018-05-23T00:48:12.277Z,5.90
2018-05-23T00:49:12.212Z,5.20
2018-05-23T00:50:12.340Z,5.20
2018-05-23T00:51:12.245Z,5.20
2018-05-23T00:52:12.286Z,5.20
2018-05-23T00:53:12.290Z,5.20
2018-05-23T00:54:12.351Z,5.20
2018-05-23T00:55:12.241Z,5.20
2018-05-23T00:56:12.286Z,5.20
2018-05-23T00:57:12.233Z,5.20
2018-05-23T00:58:12.346Z,5.20
2018-05-23T00:59:12.254Z,5.70
2018-05-23T01:00:12.333Z,5.70
2018-05-23T01:01:12.336Z,5.70
2018-05-23T01:02:12.348Z,5.70
2018-05-23T01:03:12.346Z,5.70
2018-05-23T01:04:12.300Z,5.70
2018-05-23T01:05:12.378Z,5.70
2018-05-23T01:06:12.220Z,5.70
2018-05-23T01:07:12.289Z,5.70
2018-05-23T01:08:12.230Z,5.70
2018-05-23T01:09:12.340Z,5.50
2018-05-23T01:10:12.321Z,5.50
2018-05-23T01:11:12.322Z,5.50
2018-05-23T01:12:12.323Z,5.50
2018-05-23T01:13:12.258Z,5.50
2018-05-23T01:14:12.339Z,5.50
2018-05-23T01:15:12.263Z,5.50
2018-05-23T01:16:12.222Z,5.50
2018-05-23T01:17:12.261Z,5.50
2018-05-23T01:18:12.328Z,5.50
2018-05-23T01:19:12.327Z,5.80
2018-05-23T01:20:12.230Z,5.80
2018-05-23T01:21:12.327Z,5.80
2018-05-23T01:22:12.364Z,5.80
2018-05-23T01:23:12.268Z,5.80
2018-05-23T01:24:12.287Z,5.80
2018-05-23T01:25:12.369Z,5.80
2018-05-23T01:26:12.300Z,5.80
2018-05-23T01:27:12.316Z,5.80
2018-05-23T01:28:12.337Z,5.80
2018-05-23T01:29:12.352Z,6.10
2018-05-23T01:30:12.360Z,6.10
2018-05-23T01:31:12.340Z,6.10
2018-05-23T01:32:12.361Z,6.10
2018-05-23T01:33:12.311Z,6.10
2018-05-23T01:34:12.336Z,6.10
2018-05-23T01:35:12.311Z,6.10
2018-05-23T01:36:12.358Z,6.10
2018-05-23T01:37:12.307Z,6.10
2018-05-23T01:38:12.257Z,6.10
2018-05-23T01:39:12.342Z,6.20
2018-05-23T01:40:12.282Z,6.20
2018-05-23T01:41:12.268Z,6.20
2018-05-23T01:42:12.344Z,6.20
2018-05-23T01:43:12.317Z,6.20
2018-05-23T01:44:12.339Z,6.20
2018-05-23T01:45:12.307Z,6.20
2018-05-23T01:46:12.246Z,6.20
2018-05-23T01:47:12.379Z,6.20
2018-05-23T01:48:12.351Z,6.20
2018-05-23T01:49:12.347Z,6.70
2018-05-23T01:50:12.351Z,6.70
2018-05-23T01:51:12.351Z,6.70
2018-05-23T01:52:12.319Z,6.70
2018-05-23T01:53:12.350Z,6.70
2018-05-23T01:54:12.291Z,6.70
2018-05-23T01:55:12.356Z,6.70
2018-05-23T01:56:12.284Z,6.70
2018-05-23T01:57:12.354Z,6.70
2018-05-23T01:58:12.290Z,6.70
2018-05-23T01:59:12.275Z,6.90
2018-05-23T02:00:12.392Z,6.90
2018-05-23T02:01:12.372Z,6.90
2018-05-23T02:02:12.380Z,6.90
2018-05-23T02:03:12.359Z,6.90
2018-05-23T02:04:12.393Z,6.90
2018-05-23T02:05:12.331Z,6.90
2018-05-23T02:06:12.358Z,6.90
2018-05-23T02:07:12.297Z,6.90
2018-05-23T02:08:12.399Z,6.90
2018-05-23T02:09:12.350Z,5.90
2018-05-23T02:10:12.268Z,5.90
2018-05-23T02:11:12.353Z,5.90
2018-05-23T02:12:12.306Z,5.90
2018-05-23T02:13:12.241Z,5.90
2018-05-23T02:14:12.270Z,5.90
2018-05-23T02:15:12.268Z,5.90
2018-05-23T02:16:12.349Z,5.90
2018-05-23T02:17:12.309Z,5.90
2018-05-23T02:18:12.422Z,5.90
2018-05-23T02:19:12.273Z,6.99
2018-05-23T02:20:12.272Z,6.99
2018-05-23T02:21:12.285Z,6.99
2018-05-23T02:22:12.413Z,6.99
2018-05-23T02:23:12.390Z,6.99
2018-05-23T02:24:12.337Z,6.99
2018-05-23T02:25:12.396Z,6.99
2018-05-23T02:26:12.337Z,6.99
2018-05-23T02:27:12.274Z,6.99
2018-05-23T02:28:12.276Z,6.99
2018-05-23T02:29:12.312Z,6.99
2018-05-23T02:30:12.375Z,6.99
2018-05-23T02:31:12.318Z,6.99
2018-05-23T02:32:12.376Z,6.99
2018-05-23T02:33:12.381Z,6.99
2018-05-23T02:34:12.308Z,6.99
2018-05-23T02:35:12.376Z,6.99
2018-05-23T02:36:12.378Z,6.99
2018-05-23T02:37:12.381Z,6.99
2018-05-23T02:38:12.312Z,6.99
2018-05-23T02:39:12.283Z,5.70
2018-05-23T02:40:12.299Z,5.70
2018-05-23T02:41:12.396Z,5.70
2018-05-23T02:42:12.407Z,5.70
2018-05-23T02:43:12.284Z,5.70
2018-05-23T02:44:12.321Z,5.70
2018-05-23T02:45:12.363Z,5.70
2018-05-23T02:46:12.349Z,5.70
2018-05-23T02:47:12.384Z,5.70
2018-05-23T02:48:12.356Z,5.70
2018-05-23T02:49:12.286Z,6.20
2018-05-23T02:50:12.386Z,6.20
2018-05-23T02:51:12.409Z,6.20
2018-05-23T02:52:12.381Z,6.20
2018-05-23T02:53:12.311Z,6.20
2018-05-23T02:54:12.431Z,6.20
2018-05-23T02:55:12.353Z,6.20
2018-05-23T02:56:12.334Z,6.20
2018-05-23T02:57:12.370Z,6.20
2018-05-23T02:58:12.365Z,6.20
2018-05-23T02:59:12.295Z,6.40
2018-05-23T03:00:12.411Z,6.40
2018-05-23T03:01:12.376Z,6.40
2018-05-23T03:02:12.399Z,6.40
2018-05-23T03:03:12.431Z,6.40
2018-05-23T03:04:12.336Z,6.40
2018-05-23T03:05:12.431Z,6.40
2018-05-23T03:06:12.419Z,6.40
2018-05-23T03:07:12.361Z,6.40
2018-05-23T03:08:12.354Z,6.40
2018-05-23T03:09:12.401Z,6.50
2018-05-23T03:10:12.397Z,6.50
2018-05-23T03:11:12.334Z,6.50
2018-05-23T03:12:12.335Z,6.50
2018-05-23T03:13:12.334Z,6.50
2018-05-23T03:14:12.404Z,6.50
2018-05-23T03:15:12.375Z,6.50
2018-05-23T03:16:12.338Z,6.50
2018-05-23T03:17:12.405Z,6.50
2018-05-23T03:18:12.404Z,6.50
2018-05-23T03:19:12.338Z,6.50
2018-05-23T03:20:12.350Z,5.80
2018-05-23T03:21:12.466Z,5.80
2018-05-23T03:22:12.355Z,5.80
2018-05-23T03:23:12.401Z,5.80
2018-05-23T03:24:12.329Z,5.80
2018-05-23T03:25:12.361Z,5.80
2018-05-23T03:26:12.377Z,5.80
2018-05-23T03:27:12.316Z,5.80
2018-05-23T03:28:12.445Z,5.80
2018-05-23T03:29:12.409Z,5.80
2018-05-23T03:30:12.355Z,6.20
2018-05-23T03:31:12.333Z,6.20
2018-05-23T03:32:12.351Z,6.20
2018-05-23T03:33:12.447Z,6.20
2018-05-23T03:34:12.437Z,6.20
2018-05-23T03:35:12.376Z,6.20
2018-05-23T03:36:12.415Z,6.20
2018-05-23T03:37:12.456Z,6.20
2018-05-23T03:38:12.452Z,6.20
2018-05-23T03:39:12.325Z,6.20
2018-05-23T03:40:12.355Z,7.40
2018-05-23T03:41:12.355Z,7.40
2018-05-23T03:42:12.423Z,7.40
2018-05-23T03:43:12.357Z,7.40
2018-05-23T03:44:12.355Z,7.40
2018-05-23T03:45:12.427Z,7.40
2018-05-23T03:46:12.426Z,7.40
2018-05-23T03:47:12.423Z,7.40
2018-05-23T03:48:12.426Z,7.40
2018-05-23T03:49:12.429Z,7.40
2018-05-23T03:50:12.331Z,7.90
2018-05-23T03:51:12.391Z,7.90
2018-05-23T03:52:12.363Z,7.90
2018-05-23T03:53:12.443Z,7.90
2018-05-23T03:54:12.380Z,7.90
2018-05-23T03:55:12.471Z,7.90
2018-05-23T03:56:12.332Z,7.90
2018-05-23T03:57:12.352Z,7.90
2018-05-23T03:58:12.459Z,7.90
2018-05-23T03:59:12.387Z,7.90
2018-05-23T04:00:12.432Z,7.30
2018-05-23T04:01:12.321Z,7.30
2018-05-23T04:02:12.474Z,7.30
2018-05-23T04:03:12.369Z,7.30
2018-05-23T04:04:12.434Z,7.30
2018-05-23T04:05:12.366Z,7.30
2018-05-23T04:06:12.402Z,7.30
2018-05-23T04:07:12.371Z,7.30
2018-05-23T04:08:12.557Z,7.30
2018-05-23T04:09:12.403Z,7.30
2018-05-23T04:10:12.419Z,7.99
2018-05-23T04:11:12.424Z,7.99
2018-05-23T04:12:12.345Z,7.99
2018-05-23T04:13:12.442Z,7.99
2018-05-23T04:14:12.322Z,7.99
2018-05-23T04:15:12.391Z,7.99
2018-05-23T04:16:12.342Z,7.99
2018-05-23T04:17:12.425Z,7.99
2018-05-23T04:18:12.511Z,7.99
2018-05-23T04:19:12.377Z,7.99
2018-05-23T04:20:12.431Z,7.00
2018-05-23T04:21:12.347Z,7.00
2018-05-23T04:22:12.399Z,7.00
2018-05-23T04:23:12.499Z,7.00
2018-05-23T04:24:12.443Z,7.00
2018-05-23T04:25:12.436Z,7.00
2018-05-23T04:26:12.366Z,7.00
2018-05-23T04:27:12.349Z,7.00
2018-05-23T04:28:12.448Z,7.00
2018-05-23T04:29:12.316Z,7.00
2018-05-23T04:30:12.502Z,7.80
2018-05-23T04:31:12.423Z,7.80
2018-05-23T04:32:12.419Z,7.80
2018-05-23T04:33:12.472Z,7.80
2018-05-23T04:34:12.424Z,7.80
2018-05-23T04:35:12.350Z,7.80
2018-05-23T04:36:12.423Z,7.80
2018-05-23T04:37:12.427Z,7.80
2018-05-23T04:38:12.360Z,7.80
2018-05-23T04:39:12.488Z,7.80
2018-05-23T04:40:12.461Z,6.80
2018-05-23T04:41:12.361Z,6.80
2018-05-23T04:42:12.423Z,6.80
2018-05-23T04:43:12.459Z,6.80
2018-05-23T04:44:12.419Z,6.80
2018-05-23T04:45:12.486Z,6.80
2018-05-23T04:46:12.398Z,6.80
2018-05-23T04:47:12.413Z,6.80
2018-05-23T04:48:12.484Z,6.80
2018-05-23T04:49:12.490Z,6.80
2018-05-23T04:50:12.396Z,7.90
2018-05-23T04:51:12.462Z,7.90
2018-05-23T04:52:12.400Z,7.90
2018-05-23T04:53:12.470Z,7.90
2018-05-23T04:54:12.426Z,7.90
2018-05-23T04:55:12.466Z,7.90
2018-05-23T04:56:12.466Z,7.90
2018-05-23T04:57:12.474Z,7.90
2018-05-23T04:58:12.407Z,7.90
2018-05-23T04:59:12.471Z,7.90
2018-05-23T05:00:12.406Z,8.20
2018-05-23T05:01:12.484Z,8.20
2018-05-23T05:02:12.401Z,8.20
2018-05-23T05:03:12.472Z,8.20
2018-05-23T05:04:12.469Z,8.20
2018-05-23T05:05:12.473Z,8.20
2018-05-23T05:06:12.475Z,8.20
2018-05-23T05:07:12.410Z,8.20
2018-05-23T05:08:12.367Z,8.20
2018-05-23T05:09:12.408Z,8.20
2018-05-23T05:10:12.490Z,7.10
2018-05-23T05:11:12.501Z,7.10
2018-05-23T05:12:12.383Z,7.10
2018-05-23T05:13:12.564Z,7.10
2018-05-23T05:14:12.507Z,7.10
2018-05-23T05:15:12.505Z,7.10
2018-05-23T05:16:12.505Z,7.10
2018-05-23T05:17:12.484Z,7.10
2018-05-23T05:18:12.479Z,7.10
2018-05-23T05:19:12.377Z,7.10
2018-05-23T05:20:12.466Z,7.60
2018-05-23T05:21:12.478Z,7.60
2018-05-23T05:22:12.418Z,7.60
2018-05-23T05:23:12.471Z,7.60
2018-05-23T05:24:12.436Z,7.60
2018-05-23T05:25:12.473Z,7.60
2018-05-23T05:26:12.421Z,7.60
2018-05-23T05:27:12.422Z,7.60
2018-05-23T05:28:12.482Z,7.60
2018-05-23T05:29:12.396Z,7.60
2018-05-23T05:30:12.414Z,8.30
2018-05-23T05:31:12.428Z,8.30
2018-05-23T05:32:12.523Z,8.30
2018-05-23T05:33:12.469Z,8.30
2018-05-23T05:34:12.415Z,8.30
2018-05-23T05:35:12.492Z,8.30
2018-05-23T05:36:12.524Z,8.30
2018-05-23T05:37:12.532Z,8.30
2018-05-23T05:38:12.495Z,8.30
2018-05-23T05:39:12.495Z,8.30
2018-05-23T05:40:12.394Z,7.90
2018-05-23T05:41:12.453Z,7.90
2018-05-23T05:42:12.531Z,7.90
2018-05-23T05:43:12.438Z,7.90
2018-05-23T05:44:12.542Z,7.90
2018-05-23T05:45:12.397Z,7.90
2018-05-23T05:46:12.494Z,7.90
2018-05-23T05:47:12.470Z,7.90
2018-05-23T05:48:12.499Z,7.90
2018-05-23T05:49:12.528Z,7.90
2018-05-23T05:50:12.456Z,7.90
2018-05-23T05:51:12.543Z,7.90
2018-05-23T05:52:12.443Z,7.90
2018-05-23T05:53:12.407Z,7.90
2018-05-23T05:54:12.481Z,7.90
2018-05-23T05:55:12.512Z,7.90
2018-05-23T05:56:12.442Z,7.90
2018-05-23T05:57:12.542Z,7.90
2018-05-23T05:58:12.540Z,7.90
2018-05-23T05:59:12.526Z,7.90
2018-05-23T06:00:12.508Z,8.30
2018-05-23T06:01:12.547Z,8.30
2018-05-23T06:02:12.514Z,8.30
2018-05-23T06:03:12.507Z,8.30
2018-05-23T06:04:12.508Z,8.30
2018-05-23T06:05:12.444Z,8.30
2018-05-23T06:06:12.514Z,8.30
2018-05-23T06:07:12.511Z,8.30
2018-05-23T06:08:12.513Z,8.30
2018-05-23T06:09:12.515Z,8.30
2018-05-23T06:10:12.474Z,8.40
2018-05-23T06:11:12.488Z,8.40
2018-05-23T06:12:12.526Z,8.40
2018-05-23T06:13:12.541Z,8.40
2018-05-23T06:14:12.543Z,8.40
2018-05-23T06:15:12.551Z,8.40
2018-05-23T06:16:12.536Z,8.40
2018-05-23T06:17:12.515Z,8.40
2018-05-23T06:18:12.524Z,8.40
2018-05-23T06:19:12.420Z,8.40
2018-05-23T06:20:12.555Z,8.50
2018-05-23T06:21:12.457Z,8.50
2018-05-23T06:22:12.585Z,8.50
2018-05-23T06:23:12.526Z,8.50
2018-05-23T06:24:12.522Z,8.50
2018-05-23T06:25:12.489Z,8.50
2018-05-23T06:26:12.530Z,8.50
2018-05-23T06:27:12.460Z,8.50
2018-05-23T06:28:12.550Z,8.50
2018-05-23T06:29:12.534Z,8.50
2018-05-23T06:30:12.450Z,7.70
2018-05-23T06:31:12.556Z,7.70
2018-05-23T06:32:12.544Z,7.70
2018-05-23T06:33:12.563Z,7.70
2018-05-23T06:34:12.545Z,7.70
2018-05-23T06:35:12.450Z,7.70
2018-05-23T06:36:12.516Z,7.70
2018-05-23T06:37:12.514Z,7.70
2018-05-23T06:38:12.497Z,7.70
2018-05-23T06:39:12.498Z,7.70
2018-05-23T06:40:12.497Z,7.20
2018-05-23T06:41:12.560Z,7.20
2018-05-23T06:42:12.580Z,7.20
2018-05-23T06:43:12.507Z,7.20
2018-05-23T06:44:12.496Z,7.20
2018-05-23T06:45:12.559Z,7.20
2018-05-23T06:46:12.536Z,7.20
2018-05-23T06:47:12.516Z,7.20
2018-05-23T06:48:12.462Z,7.20
2018-05-23T06:49:12.496Z,7.20
2018-05-23T06:50:12.567Z,6.70
2018-05-23T06:51:12.506Z,6.70
2018-05-23T06:52:12.461Z,6.70
2018-05-23T06:53:12.582Z,6.70
2018-05-23T06:54:12.462Z,6.70
2018-05-23T06:55:12.542Z,6.70
2018-05-23T06:56:12.525Z,6.70
2018-05-23T06:57:12.449Z,6.70
2018-05-23T06:58:12.509Z,6.70
2018-05-23T06:59:12.523Z,6.70
2018-05-23T07:00:12.547Z,6.70
2018-05-23T07:01:12.569Z,6.70
2018-05-23T07:02:12.552Z,6.70
2018-05-23T07:03:12.523Z,6.70
2018-05-23T07:04:12.586Z,6.70
2018-05-23T07:05:12.457Z,6.70
2018-05-23T07:06:12.526Z,6.70
2018-05-23T07:07:12.567Z,6.70
2018-05-23T07:08:12.595Z,6.70
2018-05-23T07:09:12.459Z,6.70
2018-05-23T07:10:12.482Z,6.00
2018-05-23T07:11:12.537Z,6.00
2018-05-23T07:12:12.535Z,6.00
2018-05-23T07:13:12.473Z,6.00
2018-05-23T07:14:12.535Z,6.00
2018-05-23T07:15:12.628Z,6.00
2018-05-23T07:16:12.462Z,6.00
2018-05-23T07:17:12.538Z,6.00
2018-05-23T07:18:12.643Z,6.00
2018-05-23T07:19:12.461Z,6.00
2018-05-23T07:20:12.497Z,5.50
2018-05-23T07:21:12.551Z,5.50
2018-05-23T07:22:12.587Z,5.50
2018-05-23T07:23:12.596Z,5.50
2018-05-23T07:24:12.579Z,5.50
2018-05-23T07:25:12.622Z,5.50
2018-05-23T07:26:12.526Z,5.50
2018-05-23T07:27:12.589Z,5.50
2018-05-23T07:28:12.525Z,5.50
2018-05-23T07:29:12.592Z,5.50
2018-05-23T07:30:12.464Z,5.40
2018-05-23T07:31:12.611Z,5.40
2018-05-23T07:32:12.554Z,5.40
2018-05-23T07:33:12.534Z,5.40
2018-05-23T07:34:12.466Z,5.40
2018-05-23T07:35:12.470Z,5.40
2018-05-23T07:36:12.492Z,5.40
2018-05-23T07:37:12.469Z,5.40
2018-05-23T07:38:12.605Z,5.40
2018-05-23T07:39:12.487Z,5.40
2018-05-23T07:40:12.534Z,6.00
2018-05-23T07:41:12.444Z,6.00
2018-05-23T07:42:12.471Z,6.00
2018-05-23T07:43:12.440Z,6.00
2018-05-23T07:44:12.441Z,6.00
2018-05-23T07:45:12.507Z,6.00
2018-05-23T07:46:12.459Z,6.00
2018-05-23T07:47:12.450Z,6.00
2018-05-23T07:48:12.510Z,6.00
2018-05-23T07:49:12.501Z,6.00
2018-05-23T07:50:12.534Z,5.20
2018-05-23T07:51:12.599Z,5.20
2018-05-23T07:52:12.579Z,5.20
2018-05-23T07:53:12.548Z,5.20
2018-05-23T07:54:12.621Z,5.20
2018-05-23T07:55:12.491Z,5.20
2018-05-23T07:56:12.555Z,5.20
2018-05-23T07:57:12.557Z,5.20
2018-05-23T07:58:12.509Z,5.20
2018-05-23T07:59:12.487Z,5.20
2018-05-23T08:00:12.524Z,5.30
2018-05-23T08:01:12.615Z,5.30
2018-05-23T08:02:12.485Z,5.30
2018-05-23T08:03:12.550Z,5.30
2018-05-23T08:04:12.623Z,5.30
2018-05-23T08:05:12.594Z,5.30
2018-05-23T08:06:12.551Z,5.30
2018-05-23T08:07:12.510Z,5.30
2018-05-23T08:08:12.624Z,5.30
2018-05-23T08:09:12.616Z,5.30
2018-05-23T08:10:12.528Z,5.20
2018-05-23T08:11:12.630Z,5.20
2018-05-23T08:12:12.489Z,5.20
2018-05-23T08:13:12.610Z,5.20
2018-05-23T08:14:12.616Z,5.20
2018-05-23T08:15:12.571Z,5.20
2018-05-23T08:16:12.617Z,5.20
2018-05-23T08:17:12.633Z,5.20
2018-05-23T08:18:12.616Z,5.20
2018-05-23T08:19:12.603Z,5.20
2018-05-23T08:20:12.571Z,5.40
2018-05-23T08:21:12.498Z,5.40
2018-05-23T08:22:12.521Z,5.40
2018-05-23T08:23:12.522Z,5.40
2018-05-23T08:24:12.623Z,5.40
2018-05-23T08:25:12.524Z,5.40
2018-05-23T08:26:12.623Z,5.40
2018-05-23T08:27:12.575Z,5.40
2018-05-23T08:28:12.565Z,5.40
2018-05-23T08:29:12.620Z,5.40
2018-05-23T08:30:12.507Z,5.40
2018-05-23T08:31:12.622Z,5.40
2018-05-23T08:32:12.636Z,5.40
2018-05-23T08:33:12.629Z,5.40
2018-05-23T08:34:12.578Z,5.40
2018-05-23T08:35:12.579Z,5.40
2018-05-23T08:36:12.528Z,5.40
2018-05-23T08:37:12.564Z,5.40
2018-05-23T08:38:12.631Z,5.40
2018-05-23T08:39:12.632Z,5.40
2018-05-23T08:40:12.562Z,5.10
2018-05-23T08:41:12.574Z,5.10
2018-05-23T08:42:12.562Z,5.10
2018-05-23T08:43:12.574Z,5.10
2018-05-23T08:44:12.577Z,5.10
2018-05-23T08:45:12.569Z,5.10
2018-05-23T08:46:12.587Z,5.10
2018-05-23T08:47:12.629Z,5.10
2018-05-23T08:48:12.637Z,5.10
2018-05-23T08:49:12.576Z,5.10
2018-05-23T08:50:12.629Z,4.30
2018-05-23T08:51:12.637Z,4.30
2018-05-23T08:52:12.656Z,4.30
2018-05-23T08:53:12.654Z,4.30
2018-05-23T08:54:12.646Z,4.30
2018-05-23T08:55:12.644Z,4.30
2018-05-23T08:56:12.699Z,4.30
2018-05-23T08:57:12.639Z,4.30
2018-05-23T08:58:12.590Z,4.30
2018-05-23T08:59:12.667Z,4.30
2018-05-23T09:00:12.657Z,4.50
2018-05-23T09:01:12.596Z,4.50
2018-05-23T09:02:12.597Z,4.50
2018-05-23T09:03:12.650Z,4.50
2018-05-23T09:04:12.590Z,4.50
2018-05-23T09:05:12.609Z,4.50
2018-05-23T09:06:12.607Z,4.50
2018-05-23T09:07:12.631Z,4.50
2018-05-23T09:08:12.661Z,4.50
2018-05-23T09:09:12.623Z,4.50
2018-05-23T09:10:12.537Z,4.50
2018-05-23T09:11:12.645Z,4.50
2018-05-23T09:12:12.748Z,4.50
2018-05-23T09:13:12.533Z,4.50
2018-05-23T09:14:12.534Z,4.50
2018-05-23T09:15:12.602Z,4.50
2018-05-23T09:16:12.656Z,4.50
2018-05-23T09:17:12.593Z,4.50
2018-05-23T09:18:12.597Z,4.50
2018-05-23T09:19:12.613Z,4.50
2018-05-23T09:20:12.540Z,4.50
2018-05-23T09:21:12.601Z,4.70
2018-05-23T09:22:12.675Z,4.70
2018-05-23T09:23:12.536Z,4.70
2018-05-23T09:24:12.655Z,4.70
2018-05-23T09:25:12.674Z,4.70
2018-05-23T09:26:12.657Z,4.70
2018-05-23T09:27:12.680Z,4.70
2018-05-23T09:28:12.578Z,4.70
2018-05-23T09:29:12.668Z,4.70
2018-05-23T09:30:12.549Z,4.70
2018-05-23T09:31:12.550Z,4.50
2018-05-23T09:32:12.710Z,4.50
2018-05-23T09:33:12.620Z,4.50
2018-05-23T09:34:12.659Z,4.50
2018-05-23T09:35:12.543Z,4.50
2018-05-23T09:36:12.556Z,4.50
2018-05-23T09:37:12.552Z,4.50
2018-05-23T09:38:12.645Z,4.50
2018-05-23T09:39:12.739Z,4.50
2018-05-23T09:40:12.644Z,4.50
2018-05-23T09:41:12.571Z,4.70
2018-05-23T09:42:12.666Z,4.70
2018-05-23T09:43:12.622Z,4.70
2018-05-23T09:44:12.677Z,4.70
2018-05-23T09:45:12.729Z,4.70
2018-05-23T09:46:12.652Z,4.70
2018-05-23T09:47:12.681Z,4.70
2018-05-23T09:48:12.678Z,4.70
2018-05-23T09:49:12.557Z,4.70
2018-05-23T09:50:12.581Z,4.70
2018-05-23T09:51:12.552Z,4.70
2018-05-23T09:52:12.614Z,4.70
2018-05-23T09:53:12.677Z,4.70
2018-05-23T09:54:12.641Z,4.70
2018-05-23T09:55:12.747Z,4.70
2018-05-23T09:56:12.565Z,4.70
2018-05-23T09:57:12.697Z,4.70
2018-05-23T09:58:12.659Z,4.70
2018-05-23T09:59:12.699Z,4.70
2018-05-23T10:00:12.606Z,4.70
2018-05-23T10:01:12.687Z,4.10
2018-05-23T10:02:12.554Z,4.10
2018-05-23T10:03:12.625Z,4.10
2018-05-23T10:04:12.624Z,4.10
2018-05-23T10:05:12.702Z,4.10
2018-05-23T10:06:12.704Z,4.10
2018-05-23T10:07:12.639Z,4.10
2018-05-23T10:08:12.631Z,4.10
2018-05-23T10:09:12.694Z,4.10
2018-05-23T10:10:12.638Z,4.10
2018-05-23T10:11:12.631Z,3.70
2018-05-23T10:12:12.704Z,3.70
2018-05-23T10:13:12.703Z,3.70
2018-05-23T10:14:12.719Z,3.70
2018-05-23T10:15:12.645Z,3.70
2018-05-23T10:16:12.676Z,3.70
2018-05-23T10:17:12.571Z,3.70
2018-05-23T10:18:12.651Z,3.70
2018-05-23T10:19:12.608Z,3.70
2018-05-23T10:20:12.702Z,3.70
2018-05-23T10:21:12.608Z,4.99
2018-05-23T10:22:12.772Z,4.99
2018-05-23T10:23:12.602Z,4.99
2018-05-23T10:24:12.676Z,4.99
2018-05-23T10:25:12.606Z,4.99
2018-05-23T10:26:12.605Z,4.99
2018-05-23T10:27:12.683Z,4.99
2018-05-23T10:28:12.679Z,4.99
2018-05-23T10:29:12.613Z,4.99
2018-05-23T10:30:12.567Z,4.99
2018-05-23T10:31:12.668Z,4.00
2018-05-23T10:32:12.669Z,4.00
2018-05-23T10:33:12.551Z,4.00
2018-05-23T10:34:12.625Z,4.00
2018-05-23T10:35:12.572Z,4.00
2018-05-23T10:36:12.668Z,4.00
2018-05-23T10:37:12.670Z,4.00
2018-05-23T10:38:12.682Z,4.00
2018-05-23T10:39:12.784Z,4.00
2018-05-23T10:40:12.595Z,4.00
2018-05-23T10:41:12.551Z,4.00
2018-05-23T10:42:12.579Z,4.00
2018-05-23T10:43:12.642Z,4.00
2018-05-23T10:44:12.561Z,4.00
2018-05-23T10:45:12.553Z,4.00
2018-05-23T10:46:12.598Z,4.00
2018-05-23T10:47:12.678Z,4.00
2018-05-23T10:48:12.618Z,4.00
2018-05-23T10:49:12.597Z,4.00
2018-05-23T10:50:12.642Z,4.00
2018-05-23T10:51:12.676Z,4.99
2018-05-23T10:52:12.656Z,4.99
2018-05-23T10:53:12.600Z,4.99
2018-05-23T10:54:12.694Z,4.99
2018-05-23T10:55:12.722Z,4.99
2018-05-23T10:56:12.677Z,4.99
2018-05-23T10:57:12.750Z,4.99
2018-05-23T10:58:12.715Z,4.99
2018-05-23T10:59:12.666Z,4.99
2018-05-23T11:00:12.794Z,4.99
2018-05-23T11:01:12.726Z,4.20
2018-05-23T11:02:12.704Z,4.20
2018-05-23T11:03:12.733Z,4.20
2018-05-23T11:04:12.744Z,4.20
2018-05-23T11:05:12.741Z,4.20
2018-05-23T11:06:12.626Z,4.20
2018-05-23T11:07:12.627Z,4.20
2018-05-23T11:08:12.683Z,4.20
2018-05-23T11:09:12.668Z,4.20
2018-05-23T11:10:12.613Z,4.20
2018-05-23T11:12:12.713Z,4.20
2018-05-23T11:13:12.729Z,4.20
2018-05-23T11:14:12.668Z,4.20
2018-05-23T11:15:12.696Z,4.20
2018-05-23T11:16:12.738Z,4.20
2018-05-23T11:17:12.744Z,4.20
2018-05-23T11:18:12.679Z,4.20
2018-05-23T11:19:12.669Z,4.20
2018-05-23T11:20:12.694Z,4.20
2018-05-23T11:21:12.716Z,3.90
2018-05-23T11:22:12.750Z,3.90
2018-05-23T11:23:12.716Z,3.90
2018-05-23T11:24:12.688Z,3.90
2018-05-23T11:25:12.687Z,3.90
2018-05-23T11:26:12.753Z,3.90
2018-05-23T11:27:12.679Z,3.90
2018-05-23T11:28:12.619Z,3.90
2018-05-23T11:29:12.677Z,3.90
2018-05-23T11:30:12.689Z,3.90
2018-05-23T11:31:12.658Z,4.30
2018-05-23T11:32:12.700Z,4.30
2018-05-23T11:33:12.747Z,4.30
2018-05-23T11:34:12.625Z,4.30
2018-05-23T11:35:12.754Z,4.30
2018-05-23T11:36:12.725Z,4.30
2018-05-23T11:37:12.634Z,4.30
2018-05-23T11:38:12.682Z,4.30
2018-05-23T11:39:12.701Z,4.30
2018-05-23T11:40:12.685Z,4.30
2018-05-23T11:41:12.660Z,3.50
2018-05-23T11:42:12.730Z,3.50
2018-05-23T11:43:12.666Z,3.50
2018-05-23T11:44:12.731Z,3.50
2018-05-23T11:45:12.729Z,3.50
2018-05-23T11:46:12.728Z,3.50
2018-05-23T11:47:12.733Z,3.50
2018-05-23T11:48:12.674Z,3.50
2018-05-23T11:49:12.732Z,3.50
2018-05-23T11:50:12.691Z,3.50
2018-05-23T11:51:12.694Z,3.80
2018-05-23T11:52:12.729Z,3.80
2018-05-23T11:53:12.754Z,3.80
2018-05-23T11:54:12.638Z,3.80
2018-05-23T11:55:12.717Z,3.80
2018-05-23T11:56:12.655Z,3.80
2018-05-23T11:57:12.706Z,3.80
2018-05-23T11:58:12.773Z,3.80
2018-05-23T11:59:12.741Z,3.80
2018-05-23T12:00:12.651Z,3.80
2018-05-23T12:01:12.772Z,3.10
2018-05-23T12:02:12.774Z,3.10
2018-05-23T12:03:12.713Z,3.10
2018-05-23T12:04:12.763Z,3.10
2018-05-23T12:05:12.647Z,3.10
2018-05-23T12:06:12.701Z,3.10
2018-05-23T12:07:12.788Z,3.10
2018-05-23T12:08:12.714Z,3.10
2018-05-23T12:09:12.711Z,3.10
2018-05-23T12:10:12.761Z,3.10
2018-05-23T12:11:12.748Z,3.99
2018-05-23T12:12:12.681Z,3.99
2018-05-23T12:13:12.749Z,3.99
2018-05-23T12:14:12.746Z,3.99
2018-05-23T12:15:12.686Z,3.99
2018-05-23T12:16:12.680Z,3.99
2018-05-23T12:17:12.682Z,3.99
2018-05-23T12:18:12.753Z,3.99
2018-05-23T12:19:12.683Z,3.99
2018-05-23T12:20:12.752Z,3.99
2018-05-23T12:21:12.652Z,3.40
2018-05-23T12:22:12.751Z,3.40
2018-05-23T12:23:12.752Z,3.40
2018-05-23T12:24:12.683Z,3.40
2018-05-23T12:25:12.690Z,3.40
2018-05-23T12:26:12.761Z,3.40
2018-05-23T12:27:12.683Z,3.40
2018-05-23T12:28:12.756Z,3.40
2018-05-23T12:29:12.688Z,3.40
2018-05-23T12:30:12.764Z,3.40
2018-05-23T12:31:12.765Z,3.10
2018-05-23T12:32:12.693Z,3.10
2018-05-23T12:33:12.772Z,3.10
2018-05-23T12:34:12.708Z,3.10
2018-05-23T12:35:12.695Z,3.10
2018-05-23T12:36:12.762Z,3.10
2018-05-23T12:37:12.695Z,3.10
2018-05-23T12:38:12.761Z,3.10
2018-05-23T12:39:12.723Z,3.10
2018-05-23T12:40:12.769Z,3.10
2018-05-23T12:41:12.741Z,2.70
2018-05-23T12:42:12.740Z,2.70
2018-05-23T12:43:12.749Z,2.70
2018-05-23T12:44:12.765Z,2.70
2018-05-23T12:45:12.689Z,2.70
2018-05-23T12:46:12.774Z,2.70
2018-05-23T12:47:12.789Z,2.70
2018-05-23T12:48:12.746Z,2.70
2018-05-23T12:49:12.810Z,2.70
2018-05-23T12:50:12.681Z,2.70
2018-05-23T12:51:12.677Z,2.80
2018-05-23T12:52:12.799Z,2.80
2018-05-23T12:53:12.810Z,2.80
2018-05-23T12:54:12.752Z,2.80
2018-05-23T12:55:12.749Z,2.80
2018-05-23T12:56:12.737Z,2.80
2018-05-23T12:57:12.736Z,2.80
2018-05-23T12:58:12.676Z,2.80
2018-05-23T12:59:12.773Z,2.80
2018-05-23T13:00:12.812Z,2.80
2018-05-23T13:01:12.731Z,2.90
2018-05-23T13:02:12.755Z,2.90
2018-05-23T13:03:12.756Z,2.90
2018-05-23T13:04:12.824Z,2.90
2018-05-23T13:05:12.777Z,2.90
2018-05-23T13:06:12.751Z,2.90
2018-05-23T13:07:12.807Z,2.90
2018-05-23T13:08:12.740Z,2.90
2018-05-23T13:09:12.739Z,2.90
2018-05-23T13:10:12.740Z,2.90
2018-05-23T13:11:12.715Z,2.80
2018-05-23T13:12:12.788Z,2.80
2018-05-23T13:13:12.722Z,2.80
2018-05-23T13:14:12.750Z,2.80
2018-05-23T13:15:12.718Z,2.80
2018-05-23T13:16:12.721Z,2.80
2018-05-23T13:17:12.829Z,2.80
2018-05-23T13:18:12.789Z,2.80
2018-05-23T13:19:12.747Z,2.80